sensor_id;sensor_type;location;lat;lon;timestamp;P1;durP1;ratioP1;P2;durP2;ratioP2
67685;SDS011;54469;52.090;4.312;2023-03-16T00:00:03;5.1;;;3;;
67685;SDS011;54469;52.090;4.312;2023-03-16T00:05:03;5.1;;;3;;
67685;SDS011;54469;52.090;4.312;2023-03-16T00:10:03;8;;;2.9;;
67685;SDS011;54469;52.090;4.312;2023-03-16T00:15:02;8;;;2.9;;
67685;SDS011;54469;52.090;4.312;2023-03-16T00:20:02;5.7;;;3.1;;
67685;SDS011;54469;52.090;4.312;2023-03-16T00:25:03;5.7;;;3.1;;
67685;SDS011;54469;52.090;4.312;2023-03-16T00:30:02;5.7;;;3.1;;
67685;SDS011;54469;52.090;4.312;2023-03-16T00:35:03;5.7;;;3.1;;
67685;SDS011;54469;52.090;4.312;2023-03-16T00:40:02;5.7;;;3.1;;
67685;SDS011;54469;52.090;4.312;2023-03-16T00:45:02;3.3;;;2.3;;
67685;SDS011;54469;52.090;4.312;2023-03-16T00:50:03;6.6;;;3.1;;
67685;SDS011;54469;52.090;4.312;2023-03-16T00:55:03;4.4;;;2.4;;
67685;SDS011;54469;52.090;4.312;2023-03-16T01:00:03;4.4;;;2.4;;
67685;SDS011;54469;52.090;4.312;2023-03-16T01:05:02;4.4;;;2.4;;
67685;SDS011;54469;52.090;4.312;2023-03-16T01:10:03;4.4;;;2.4;;
67685;SDS011;54469;52.090;4.312;2023-03-16T01:15:02;4.4;;;2.4;;
67685;SDS011;54469;52.090;4.312;2023-03-16T01:20:02;4.4;;;2.4;;
67685;SDS011;54469;52.090;4.312;2023-03-16T01:25:03;5.7;;;3.5;;
67685;SDS011;54469;52.090;4.312;2023-03-16T01:30:03;5.7;;;3.5;;
67685;SDS011;54469;52.090;4.312;2023-03-16T01:35:03;5.7;;;3.5;;
67685;SDS011;54469;52.090;4.312;2023-03-16T01:40:03;4;;;2.4;;
67685;SDS011;54469;52.090;4.312;2023-03-16T01:45:03;4;;;2.4;;
67685;SDS011;54469;52.090;4.312;2023-03-16T01:50:02;6;;;3.3;;
67685;SDS011;54469;52.090;4.312;2023-03-16T01:55:03;6;;;3.3;;
67685;SDS011;54469;52.090;4.312;2023-03-16T02:00:03;6;;;3.3;;
67685;SDS011;54469;52.090;4.312;2023-03-16T02:05:03;9.4;;;4.1;;
67685;SDS011;54469;52.090;4.312;2023-03-16T02:10:03;9.4;;;4.1;;
67685;SDS011;54469;52.090;4.312;2023-03-16T02:15:03;9.4;;;4.1;;
67685;SDS011;54469;52.090;4.312;2023-03-16T02:20:06;9.4;;;4.1;;
67685;SDS011;54469;52.090;4.312;2023-03-16T02:25:03;9.4;;;4.1;;
67685;SDS011;54469;52.090;4.312;2023-03-16T02:30:05;5.8;;;3.1;;
67685;SDS011;54469;52.090;4.312;2023-03-16T02:35:03;7.8;;;3.4;;
67685;SDS011;54469;52.090;4.312;2023-03-16T02:40:12;7.8;;;3.4;;
67685;SDS011;54469;52.090;4.312;2023-03-16T02:45:03;11.8;;;4.6;;
67685;SDS011;54469;52.090;4.312;2023-03-16T02:50:03;11.8;;;4.6;;
67685;SDS011;54469;52.090;4.312;2023-03-16T02:55:03;11.8;;;4.6;;
67685;SDS011;54469;52.090;4.312;2023-03-16T03:00:02;11.8;;;4.6;;
67685;SDS011;54469;52.090;4.312;2023-03-16T03:05:02;6.3;;;3.3;;
67685;SDS011;54469;52.090;4.312;2023-03-16T03:10:03;6.3;;;3.3;;
67685;SDS011;54469;52.090;4.312;2023-03-16T03:15:03;6.3;;;3.3;;
67685;SDS011;54469;52.090;4.312;2023-03-16T03:20:03;6.3;;;3.3;;
67685;SDS011;54469;52.090;4.312;2023-03-16T03:25:03;6.3;;;3.3;;
67685;SDS011;54469;52.090;4.312;2023-03-16T03:30:03;6.3;;;3.3;;
67685;SDS011;54469;52.090;4.312;2023-03-16T03:35:03;6.3;;;3.3;;
67685;SDS011;54469;52.090;4.312;2023-03-16T03:40:03;4.4;;;2.2;;
67685;SDS011;54469;52.090;4.312;2023-03-16T03:45:02;7.5;;;2.9;;
67685;SDS011;54469;52.090;4.312;2023-03-16T03:50:02;5.2;;;2.6;;
67685;SDS011;54469;52.090;4.312;2023-03-16T03:55:03;5.2;;;2.6;;
67685;SDS011;54469;52.090;4.312;2023-03-16T04:00:03;5.2;;;2.6;;
67685;SDS011;54469;52.090;4.312;2023-03-16T04:05:02;8;;;2.6;;
67685;SDS011;54469;52.090;4.312;2023-03-16T04:10:02;8;;;2.6;;
67685;SDS011;54469;52.090;4.312;2023-03-16T04:15:03;6;;;2.4;;
67685;SDS011;54469;52.090;4.312;2023-03-16T04:20:03;6;;;2.4;;
67685;SDS011;54469;52.090;4.312;2023-03-16T04:25:03;6;;;2.4;;
67685;SDS011;54469;52.090;4.312;2023-03-16T04:30:03;6;;;2.4;;
67685;SDS011;54469;52.090;4.312;2023-03-16T04:35:02;6;;;2.4;;
67685;SDS011;54469;52.090;4.312;2023-03-16T04:40:03;6;;;2.4;;
67685;SDS011;54469;52.090;4.312;2023-03-16T04:45:02;3;;;1.9;;
67685;SDS011;54469;52.090;4.312;2023-03-16T04:50:02;7.2;;;2.6;;
67685;SDS011;54469;52.090;4.312;2023-03-16T04:55:02;3.3;;;2.1;;
67685;SDS011;54469;52.090;4.312;2023-03-16T05:00:02;5.3;;;2.7;;
67685;SDS011;54469;52.090;4.312;2023-03-16T05:05:03;5.3;;;2.7;;
67685;SDS011;54469;52.090;4.312;2023-03-16T05:10:02;5.3;;;2.7;;
67685;SDS011;54469;52.090;4.312;2023-03-16T05:15:02;5.3;;;2.7;;
67685;SDS011;54469;52.090;4.312;2023-03-16T05:20:02;5.3;;;2.7;;
67685;SDS011;54469;52.090;4.312;2023-03-16T05:25:03;5.3;;;2.7;;
67685;SDS011;54469;52.090;4.312;2023-03-16T05:30:03;5.3;;;2.7;;
67685;SDS011;54469;52.090;4.312;2023-03-16T05:35:03;5.3;;;2.7;;
67685;SDS011;54469;52.090;4.312;2023-03-16T05:40:03;5.3;;;2.7;;
67685;SDS011;54469;52.090;4.312;2023-03-16T05:45:03;5.3;;;2.7;;
67685;SDS011;54469;52.090;4.312;2023-03-16T05:50:02;5.3;;;2.7;;
67685;SDS011;54469;52.090;4.312;2023-03-16T05:55:03;5.3;;;2.7;;
67685;SDS011;54469;52.090;4.312;2023-03-16T06:00:03;5.3;;;2.7;;
67685;SDS011;54469;52.090;4.312;2023-03-16T06:05:03;5.3;;;2.7;;
67685;SDS011;54469;52.090;4.312;2023-03-16T06:10:03;4.1;;;1.5;;
67685;SDS011;54469;52.090;4.312;2023-03-16T06:15:03;4.1;;;1.5;;
67685;SDS011;54469;52.090;4.312;2023-03-16T06:20:02;4.1;;;1.5;;
67685;SDS011;54469;52.090;4.312;2023-03-16T06:25:02;4.1;;;1.5;;
67685;SDS011;54469;52.090;4.312;2023-03-16T06:30:03;1.6;;;1;;
67685;SDS011;54469;52.090;4.312;2023-03-16T06:35:03;4.9;;;1.7;;
67685;SDS011;54469;52.090;4.312;2023-03-16T06:40:02;2.6;;;1.2;;
67685;SDS011;54469;52.090;4.312;2023-03-16T06:45:03;4.7;;;1.8;;
67685;SDS011;54469;52.090;4.312;2023-03-16T06:50:03;4.7;;;1.8;;
67685;SDS011;54469;52.090;4.312;2023-03-16T06:55:03;4.7;;;1.8;;
67685;SDS011;54469;52.090;4.312;2023-03-16T07:00:03;4.7;;;1.8;;
67685;SDS011;54469;52.090;4.312;2023-03-16T07:05:03;4.7;;;1.8;;
67685;SDS011;54469;52.090;4.312;2023-03-16T07:10:02;4.7;;;1.8;;
67685;SDS011;54469;52.090;4.312;2023-03-16T07:15:02;4.7;;;1.8;;
67685;SDS011;54469;52.090;4.312;2023-03-16T07:20:03;4.7;;;1.8;;
67685;SDS011;54469;52.090;4.312;2023-03-16T07:25:02;4.7;;;1.8;;
67685;SDS011;54469;52.090;4.312;2023-03-16T07:30:02;4.7;;;1.8;;
67685;SDS011;54469;52.090;4.312;2023-03-16T07:35:03;4.7;;;1.8;;
67685;SDS011;54469;52.090;4.312;2023-03-16T07:40:03;4.7;;;1.8;;
67685;SDS011;54469;52.090;4.312;2023-03-16T07:45:03;1.4;;;1;;
67685;SDS011;54469;52.090;4.312;2023-03-16T07:50:02;1.4;;;1;;
67685;SDS011;54469;52.090;4.312;2023-03-16T07:55:03;4.7;;;1.6;;
67685;SDS011;54469;52.090;4.312;2023-03-16T08:00:03;4.7;;;1.6;;
67685;SDS011;54469;52.090;4.312;2023-03-16T08:05:03;4.7;;;1.6;;
67685;SDS011;54469;52.090;4.312;2023-03-16T08:10:03;4.7;;;1.6;;
67685;SDS011;54469;52.090;4.312;2023-03-16T08:15:03;4.7;;;1.6;;
67685;SDS011;54469;52.090;4.312;2023-03-16T08:20:03;4.7;;;1.6;;
67685;SDS011;54469;52.090;4.312;2023-03-16T08:25:02;2.2;;;1.1;;
67685;SDS011;54469;52.090;4.312;2023-03-16T08:30:03;2.2;;;1.1;;
67685;SDS011;54469;52.090;4.312;2023-03-16T08:35:02;2.2;;;1.1;;
67685;SDS011;54469;52.090;4.312;2023-03-16T08:40:03;4.4;;;1.6;;
67685;SDS011;54469;52.090;4.312;2023-03-16T08:45:03;4.4;;;1.6;;
67685;SDS011;54469;52.090;4.312;2023-03-16T08:50:02;4.4;;;1.6;;
67685;SDS011;54469;52.090;4.312;2023-03-16T08:55:03;4.4;;;1.6;;
67685;SDS011;54469;52.090;4.312;2023-03-16T09:00:03;4.4;;;1.6;;
67685;SDS011;54469;52.090;4.312;2023-03-16T09:05:02;4.4;;;1.6;;
67685;SDS011;54469;52.090;4.312;2023-03-16T09:10:02;4.4;;;1.6;;
67685;SDS011;54469;52.090;4.312;2023-03-16T09:15:02;2.1;;;1.2;;
67685;SDS011;54469;52.090;4.312;2023-03-16T09:20:02;7.8;;;1.8;;
67685;SDS011;54469;52.090;4.312;2023-03-16T09:25:03;3.1;;;1.5;;
67685;SDS011;54469;52.090;4.312;2023-03-16T09:30:02;3.1;;;1.5;;
67685;SDS011;54469;52.090;4.312;2023-03-16T09:35:03;3.1;;;1.5;;
67685;SDS011;54469;52.090;4.312;2023-03-16T09:40:03;3.1;;;1.5;;
67685;SDS011;54469;52.090;4.312;2023-03-16T09:45:05;3.1;;;1.5;;
67685;SDS011;54469;52.090;4.312;2023-03-16T09:50:04;3.1;;;1.5;;
67685;SDS011;54469;52.090;4.312;2023-03-16T09:55:03;5.8;;;1.1;;
67685;SDS011;54469;52.090;4.312;2023-03-16T10:00:12;5.8;;;1.1;;
67685;SDS011;54469;52.090;4.312;2023-03-16T10:05:04;5.8;;;1.1;;
67685;SDS011;54469;52.090;4.312;2023-03-16T10:10:04;5.8;;;1.1;;
67685;SDS011;54469;52.090;4.312;2023-03-16T10:15:04;5.8;;;1.1;;
67685;SDS011;54469;52.090;4.312;2023-03-16T10:20:04;3.1;;;1.7;;
67685;SDS011;54469;52.090;4.312;2023-03-16T10:25:05;3.1;;;1.7;;
67685;SDS011;54469;52.090;4.312;2023-03-16T10:30:03;3.1;;;1.7;;
67685;SDS011;54469;52.090;4.312;2023-03-16T10:35:04;3.1;;;1.7;;
67685;SDS011;54469;52.090;4.312;2023-03-16T10:40:05;3.1;;;1.7;;
67685;SDS011;54469;52.090;4.312;2023-03-16T10:45:02;3.1;;;1.7;;
67685;SDS011;54469;52.090;4.312;2023-03-16T10:50:13;3.1;;;1.7;;
67685;SDS011;54469;52.090;4.312;2023-03-16T10:55:06;5.4;;;1.2;;
67685;SDS011;54469;52.090;4.312;2023-03-16T11:00:05;7.8;;;1.7;;
67685;SDS011;54469;52.090;4.312;2023-03-16T11:05:11;3;;;1.2;;
67685;SDS011;54469;52.090;4.312;2023-03-16T11:10:10;3;;;1.2;;
67685;SDS011;54469;52.090;4.312;2023-03-16T11:15:03;3;;;1.2;;
67685;SDS011;54469;52.090;4.312;2023-03-16T11:20:03;3;;;1.2;;
67685;SDS011;54469;52.090;4.312;2023-03-16T11:25:07;3;;;1.2;;
67685;SDS011;54469;52.090;4.312;2023-03-16T11:30:04;3;;;1.2;;
67685;SDS011;54469;52.090;4.312;2023-03-16T11:35:10;3;;;1.2;;
67685;SDS011;54469;52.090;4.312;2023-03-16T11:40:06;3;;;1.2;;
67685;SDS011;54469;52.090;4.312;2023-03-16T11:45:07;3;;;1.2;;
67685;SDS011;54469;52.090;4.312;2023-03-16T11:50:04;3;;;1.2;;
67685;SDS011;54469;52.090;4.312;2023-03-16T11:55:06;3;;;1.2;;
67685;SDS011;54469;52.090;4.312;2023-03-16T12:00:06;3;;;1.2;;
67685;SDS011;54469;52.090;4.312;2023-03-16T12:05:08;3;;;1.2;;
67685;SDS011;54469;52.090;4.312;2023-03-16T12:10:06;3;;;1.2;;
67685;SDS011;54469;52.090;4.312;2023-03-16T12:15:08;3;;;1.2;;
67685;SDS011;54469;52.090;4.312;2023-03-16T12:20:03;5.8;;;1.2;;
67685;SDS011;54469;52.090;4.312;2023-03-16T12:25:02;5.8;;;1.2;;
67685;SDS011;54469;52.090;4.312;2023-03-16T12:30:04;2.9;;;1;;
67685;SDS011;54469;52.090;4.312;2023-03-16T12:35:05;5.6;;;1.2;;
67685;SDS011;54469;52.090;4.312;2023-03-16T12:40:04;3.3;;;1.1;;
67685;SDS011;54469;52.090;4.312;2023-03-16T12:45:03;3.3;;;1.1;;
67685;SDS011;54469;52.090;4.312;2023-03-16T12:50:03;3.3;;;1.1;;
67685;SDS011;54469;52.090;4.312;2023-03-16T12:55:05;3.3;;;1.1;;
67685;SDS011;54469;52.090;4.312;2023-03-16T13:00:02;3.3;;;1.1;;
67685;SDS011;54469;52.090;4.312;2023-03-16T13:05:06;9.300000000000002;;;1.1;;
67685;SDS011;54469;52.090;4.312;2023-03-16T13:10:03;9.300000000000002;;;1.1;;
67685;SDS011;54469;52.090;4.312;2023-03-16T13:15:13;9.300000000000002;;;1.1;;
67685;SDS011;54469;52.090;4.312;2023-03-16T13:20:05;3.7;;;1.2;;
67685;SDS011;54469;52.090;4.312;2023-03-16T13:25:11;3.7;;;1.2;;
67685;SDS011;54469;52.090;4.312;2023-03-16T13:30:14;3.7;;;1.2;;
67685;SDS011;54469;52.090;4.312;2023-03-16T13:35:03;3.7;;;1.2;;
67685;SDS011;54469;52.090;4.312;2023-03-16T13:40:15;3.7;;;1.2;;
67685;SDS011;54469;52.090;4.312;2023-03-16T13:45:09;3.7;;;1.2;;
67685;SDS011;54469;52.090;4.312;2023-03-16T13:50:03;3.7;;;1.2;;
67685;SDS011;54469;52.090;4.312;2023-03-16T13:55:05;3.7;;;1.2;;
67685;SDS011;54469;52.090;4.312;2023-03-16T14:00:03;3.7;;;1.2;;
67685;SDS011;54469;52.090;4.312;2023-03-16T14:05:08;3.7;;;1.2;;
67685;SDS011;54469;52.090;4.312;2023-03-16T14:10:03;6.4;;;1.1;;
67685;SDS011;54469;52.090;4.312;2023-03-16T14:15:03;6.4;;;1.1;;
67685;SDS011;54469;52.090;4.312;2023-03-16T14:20:02;2.5;;;0.7;;
67685;SDS011;54469;52.090;4.312;2023-03-16T14:25:04;2.5;;;0.7;;
67685;SDS011;54469;52.090;4.312;2023-03-16T14:30:12;4.6;;;1.1;;
67685;SDS011;54469;52.090;4.312;2023-03-16T14:35:09;2.6;;;1.1;;
67685;SDS011;54469;52.090;4.312;2023-03-16T14:40:03;2.6;;;1.1;;
67685;SDS011;54469;52.090;4.312;2023-03-16T14:45:03;2.6;;;1.1;;
67685;SDS011;54469;52.090;4.312;2023-03-16T14:50:05;2.6;;;1.1;;
67685;SDS011;54469;52.090;4.312;2023-03-16T14:55:08;2.6;;;1.1;;
67685;SDS011;54469;52.090;4.312;2023-03-16T15:00:02;2.6;;;1.1;;
67685;SDS011;54469;52.090;4.312;2023-03-16T15:05:02;4.6;;;1;;
67685;SDS011;54469;52.090;4.312;2023-03-16T15:10:04;4.6;;;1;;
67685;SDS011;54469;52.090;4.312;2023-03-16T15:15:08;4.6;;;1;;
67685;SDS011;54469;52.090;4.312;2023-03-16T15:20:02;4.6;;;1;;
67685;SDS011;54469;52.090;4.312;2023-03-16T15:25:06;2.1;;;1;;
67685;SDS011;54469;52.090;4.312;2023-03-16T15:30:05;2.1;;;1;;
67685;SDS011;54469;52.090;4.312;2023-03-16T15:35:02;2.1;;;1;;
67685;SDS011;54469;52.090;4.312;2023-03-16T15:40:08;2.1;;;1;;
67685;SDS011;54469;52.090;4.312;2023-03-16T15:45:04;5.1;;;1.3;;
67685;SDS011;54469;52.090;4.312;2023-03-16T15:50:02;3.1;;;0.9;;
67685;SDS011;54469;52.090;4.312;2023-03-16T15:55:02;3.1;;;0.9;;
67685;SDS011;54469;52.090;4.312;2023-03-16T16:00:03;3.1;;;0.9;;
67685;SDS011;54469;52.090;4.312;2023-03-16T16:05:02;3.1;;;0.9;;
67685;SDS011;54469;52.090;4.312;2023-03-16T16:10:02;5.2;;;1;;
67685;SDS011;54469;52.090;4.312;2023-03-16T16:15:02;2.7;;;0.6;;
67685;SDS011;54469;52.090;4.312;2023-03-16T16:20:07;2.7;;;0.6;;
67685;SDS011;54469;52.090;4.312;2023-03-16T16:25:03;2.7;;;0.6;;
67685;SDS011;54469;52.090;4.312;2023-03-16T16:30:09;2.7;;;0.6;;
67685;SDS011;54469;52.090;4.312;2023-03-16T16:35:04;2.7;;;0.6;;
67685;SDS011;54469;52.090;4.312;2023-03-16T16:40:03;8.9;;;1.1;;
67685;SDS011;54469;52.090;4.312;2023-03-16T16:45:03;4;;;1.2;;
67685;SDS011;54469;52.090;4.312;2023-03-16T16:50:09;4;;;1.2;;
67685;SDS011;54469;52.090;4.312;2023-03-16T16:55:03;4;;;1.2;;
67685;SDS011;54469;52.090;4.312;2023-03-16T17:00:03;8.4;;;1.3;;
67685;SDS011;54469;52.090;4.312;2023-03-16T17:05:03;4.1;;;1;;
67685;SDS011;54469;52.090;4.312;2023-03-16T17:15:05;4.1;;;1;;
67685;SDS011;54469;52.090;4.312;2023-03-16T17:20:05;4.1;;;1;;
67685;SDS011;54469;52.090;4.312;2023-03-16T17:25:03;4.1;;;1;;
67685;SDS011;54469;52.090;4.312;2023-03-16T17:30:02;4.1;;;1;;
67685;SDS011;54469;52.090;4.312;2023-03-16T17:35:04;4.1;;;1;;
67685;SDS011;54469;52.090;4.312;2023-03-16T17:40:03;4.1;;;1;;
67685;SDS011;54469;52.090;4.312;2023-03-16T17:45:04;4.1;;;1;;
67685;SDS011;54469;52.090;4.312;2023-03-16T17:50:08;4.1;;;1;;
67685;SDS011;54469;52.090;4.312;2023-03-16T17:55:02;4.1;;;1;;
67685;SDS011;54469;52.090;4.312;2023-03-16T18:00:06;4.1;;;1;;
67685;SDS011;54469;52.090;4.312;2023-03-16T18:05:03;2.1;;;0.8;;
67685;SDS011;54469;52.090;4.312;2023-03-16T18:10:02;5.4;;;1.7;;
67685;SDS011;54469;52.090;4.312;2023-03-16T18:15:02;8.300000000000002;;;1.8;;
67685;SDS011;54469;52.090;4.312;2023-03-16T18:20:03;8.300000000000002;;;1.8;;
67685;SDS011;54469;52.090;4.312;2023-03-16T18:25:05;6.2;;;1.7;;
67685;SDS011;54469;52.090;4.312;2023-03-16T18:30:02;6.2;;;1.7;;
67685;SDS011;54469;52.090;4.312;2023-03-16T18:35:02;3.5;;;1.6;;
67685;SDS011;54469;52.090;4.312;2023-03-16T18:40:03;3.5;;;1.6;;
67685;SDS011;54469;52.090;4.312;2023-03-16T18:45:03;3.5;;;1.6;;
67685;SDS011;54469;52.090;4.312;2023-03-16T18:50:03;3.5;;;1.6;;
67685;SDS011;54469;52.090;4.312;2023-03-16T18:55:03;3.5;;;1.6;;
67685;SDS011;54469;52.090;4.312;2023-03-16T19:00:02;3.5;;;1.6;;
67685;SDS011;54469;52.090;4.312;2023-03-16T19:05:03;3.5;;;1.6;;
67685;SDS011;54469;52.090;4.312;2023-03-16T19:10:04;7.1;;;1.9;;
67685;SDS011;54469;52.090;4.312;2023-03-16T19:15:11;3.2;;;1.6;;
67685;SDS011;54469;52.090;4.312;2023-03-16T19:20:02;5.9;;;1.9;;
67685;SDS011;54469;52.090;4.312;2023-03-16T19:25:03;5.9;;;1.9;;
67685;SDS011;54469;52.090;4.312;2023-03-16T19:30:03;3;;;1.5;;
67685;SDS011;54469;52.090;4.312;2023-03-16T19:35:05;3;;;1.5;;
67685;SDS011;54469;52.090;4.312;2023-03-16T19:40:03;3;;;1.5;;
67685;SDS011;54469;52.090;4.312;2023-03-16T19:45:03;3;;;1.5;;
67685;SDS011;54469;52.090;4.312;2023-03-16T19:50:05;3;;;1.5;;
67685;SDS011;54469;52.090;4.312;2023-03-16T19:55:03;3;;;1.5;;
67685;SDS011;54469;52.090;4.312;2023-03-16T20:00:03;3;;;1.5;;
67685;SDS011;54469;52.090;4.312;2023-03-16T20:05:03;3;;;1.5;;
67685;SDS011;54469;52.090;4.312;2023-03-16T20:10:03;3;;;1.5;;
67685;SDS011;54469;52.090;4.312;2023-03-16T20:15:02;3;;;1.5;;
67685;SDS011;54469;52.090;4.312;2023-03-16T20:20:04;3;;;1.5;;
67685;SDS011;54469;52.090;4.312;2023-03-16T20:25:03;3;;;1.5;;
67685;SDS011;54469;52.090;4.312;2023-03-16T20:30:03;5.4;;;2;;
67685;SDS011;54469;52.090;4.312;2023-03-16T20:35:02;5.4;;;2;;
67685;SDS011;54469;52.090;4.312;2023-03-16T20:40:02;5.4;;;2;;
67685;SDS011;54469;52.090;4.312;2023-03-16T20:45:06;5.4;;;2;;
67685;SDS011;54469;52.090;4.312;2023-03-16T20:50:04;2.7;;;1.5;;
67685;SDS011;54469;52.090;4.312;2023-03-16T20:55:02;2.7;;;1.5;;
67685;SDS011;54469;52.090;4.312;2023-03-16T21:00:05;2.7;;;1.5;;
67685;SDS011;54469;52.090;4.312;2023-03-16T21:05:04;2.7;;;1.5;;
67685;SDS011;54469;52.090;4.312;2023-03-16T21:10:03;2.7;;;1.5;;
67685;SDS011;54469;52.090;4.312;2023-03-16T21:15:04;6.1;;;1.7;;
67685;SDS011;54469;52.090;4.312;2023-03-16T21:20:05;3.4;;;1.6;;
67685;SDS011;54469;52.090;4.312;2023-03-16T21:25:02;3.4;;;1.6;;
67685;SDS011;54469;52.090;4.312;2023-03-16T21:30:04;3.4;;;1.6;;
67685;SDS011;54469;52.090;4.312;2023-03-16T21:35:03;3.4;;;1.6;;
67685;SDS011;54469;52.090;4.312;2023-03-16T21:40:05;3.4;;;1.6;;
67685;SDS011;54469;52.090;4.312;2023-03-16T21:45:03;3.4;;;1.6;;
67685;SDS011;54469;52.090;4.312;2023-03-16T21:50:08;3.4;;;1.6;;
67685;SDS011;54469;52.090;4.312;2023-03-16T21:55:04;3.4;;;1.6;;
67685;SDS011;54469;52.090;4.312;2023-03-16T22:00:03;3.4;;;1.6;;
67685;SDS011;54469;52.090;4.312;2023-03-16T22:05:07;3.4;;;1.6;;
67685;SDS011;54469;52.090;4.312;2023-03-16T22:10:11;5.7;;;1.8;;
67685;SDS011;54469;52.090;4.312;2023-03-16T22:15:03;2.8;;;1.4;;
67685;SDS011;54469;52.090;4.312;2023-03-16T22:20:02;2.8;;;1.4;;
67685;SDS011;54469;52.090;4.312;2023-03-16T22:25:04;2.8;;;1.4;;
67685;SDS011;54469;52.090;4.312;2023-03-16T22:30:03;6.3;;;2.5;;
67685;SDS011;54469;52.090;4.312;2023-03-16T22:35:02;6.3;;;2.5;;
67685;SDS011;54469;52.090;4.312;2023-03-16T22:40:02;3.8;;;1.9;;
67685;SDS011;54469;52.090;4.312;2023-03-16T22:45:03;3.8;;;1.9;;
67685;SDS011;54469;52.090;4.312;2023-03-16T22:50:03;3.8;;;1.9;;
67685;SDS011;54469;52.090;4.312;2023-03-16T22:55:03;3.8;;;1.9;;
67685;SDS011;54469;52.090;4.312;2023-03-16T23:00:03;3.8;;;1.9;;
67685;SDS011;54469;52.090;4.312;2023-03-16T23:05:10;3.8;;;1.9;;
67685;SDS011;54469;52.090;4.312;2023-03-16T23:10:03;3.8;;;1.9;;
67685;SDS011;54469;52.090;4.312;2023-03-16T23:15:07;3.8;;;1.9;;
67685;SDS011;54469;52.090;4.312;2023-03-16T23:20:05;3.8;;;1.9;;
67685;SDS011;54469;52.090;4.312;2023-03-16T23:25:02;3.8;;;1.9;;
67685;SDS011;54469;52.090;4.312;2023-03-16T23:30:09;3.8;;;1.9;;
67685;SDS011;54469;52.090;4.312;2023-03-16T23:35:07;3.8;;;1.9;;
67685;SDS011;54469;52.090;4.312;2023-03-16T23:40:03;3.8;;;1.9;;
67685;SDS011;54469;52.090;4.312;2023-03-16T23:45:04;3.8;;;1.9;;
67685;SDS011;54469;52.090;4.312;2023-03-16T23:50:03;6.5;;;2.1;;
67685;SDS011;54469;52.090;4.312;2023-03-16T23:55:02;6.5;;;2.1;;
